Página principal
METAR-TAF:

METAR-TAF

Aeroportos :

Wanaham

Lifou, Nova Caledónia

latitude: 20-46S, longitude: 167-14E, altura: 28 m

METAR: em falta

Hora: 16:44 (05:44 UTC)

Previsão

O boletim foi feito há 12 horas e 44 minutos, às 17:00 UTC
Previsão válida de 22 às 18 UTC a 23 às 18 UTC
Vento 8 kt de es-sudeste
Visibilidade 10 km ou mais
Nuvens dispersasa uma altura de 3000 ft
Nuvens dispersasa uma altura de 4000 ft
Tornando-se
de 22 às 22 UTC a 22 às 24 UTC
Vento 18 kt de sudeste
Probabilidade 30% :
Temporariamente
de 22 às 18 UTC a 23 às 09 UTC
Visibilidade: 4000 m
Nuvens fragmentadasa uma altura de 800 ft
Nuvens dispersasa uma altura de 1800 ft, Cumulus congestus.
aguaceiros de chuva
Tornando-se
de 23 às 10 UTC a 23 às 12 UTC
Vento 5 kt de este

TAF: NWWL 221700Z 2218/2318 11008KT 9999 SCT030 SCT040 BECMG 2222/2224 14018KT PROB30 TEMPO 2218/2309 4000 SHRA BKN008 SCT018TCU BECMG 2310/2312 08005KT

Observações e previsões do tempo de mais de 4000 aeroportos (mensagens METAR e TAF).

As estações disponíveis são os pontos amarelos e vermelhos sobre o mapa.

Mova o rato sobre o mapa para ver o nome da estação.

Depois clique no ponto para visualizar as observações e previsões meteorológicas.

Para alterar o mapa : clique nos botões verdes com uma cruz preta para aumentar o zoom; no botão verde com uma pitada de zoom; ou nas setas verdes para mapas adjacentes.


METAR-TAF: